Rechercher aéroport 
image banner adimage banner adimage banner ad
image banner ad

CN29 - J-B

Situé à Farmington, United States

ICAO - CN29, IATA -

Données fournies par Airmate  

Information générale

Coordonnées: N37°56'7" W121°0'56"
Élévation : 103 feet MSL.
Variation magnétique : 16° East
Voir autres Aéroports à California

Données opérationnelles

Special qualification required
Heure actuelle UTC:
Heure actuelle locale:
Météo à : KSCK - Stockton Metropolitan ( 20 km )
METAR: KSCK 251655Z 32006KT 10SM CLR 23/11 A2990 RMK AO2 SLP125 T02330111
TAF: KSCK 251120Z 2512/2612 32009KT P6SM SCT250
Voir NOTAMs / SUP AIP / TFR affectant cet aéroport [VIEW]
Fréquences de communication: [VIEW]

Pistes:

Identifiant RWYQFULongueur (ft)Largeur (ft)SurfaceLDA (ft)
N170040GRASS
S170040GRASS

Coordonnées de l'aéroport

Adresse: Farmington United States

Vue satellite de CN29